createdAt,value
2022-11-24T00:00:23.584Z,6.79
2022-11-24T00:01:23.569Z,6.79
2022-11-24T00:02:23.740Z,6.77
2022-11-24T00:03:23.784Z,6.72
2022-11-24T00:04:23.535Z,6.71
2022-11-24T00:05:23.540Z,6.72
2022-11-24T00:06:23.537Z,6.69
2022-11-24T00:07:23.594Z,6.71
2022-11-24T00:08:23.504Z,6.68
2022-11-24T00:09:23.477Z,6.68
2022-11-24T00:10:23.484Z,6.66
2022-11-24T00:11:23.492Z,6.66
2022-11-24T00:12:23.476Z,6.66
2022-11-24T00:13:23.485Z,6.68
2022-11-24T00:14:23.451Z,6.68
2022-11-24T00:15:23.433Z,6.68
2022-11-24T00:16:23.724Z,6.68
2022-11-24T00:17:24.575Z,6.66
2022-11-24T00:18:23.610Z,6.68
2022-11-24T00:19:23.389Z,6.66
2022-11-24T00:20:23.755Z,6.63
2022-11-24T00:21:23.439Z,6.63
2022-11-24T00:22:23.343Z,6.61
2022-11-24T00:23:23.572Z,6.59
2022-11-24T00:24:23.417Z,6.58
2022-11-24T00:25:23.325Z,6.61
2022-11-24T00:26:23.456Z,6.59
2022-11-24T00:27:23.566Z,6.59
2022-11-24T00:28:23.261Z,6.58
2022-11-24T00:29:23.268Z,6.59
2022-11-24T00:30:23.251Z,6.62
2022-11-24T00:31:23.388Z,6.62
2022-11-24T00:32:23.219Z,6.62
2022-11-24T00:33:23.251Z,6.62
2022-11-24T00:34:23.210Z,6.61
2022-11-24T00:35:23.185Z,6.59
2022-11-24T00:36:23.223Z,6.58
2022-11-24T00:37:23.177Z,6.56
2022-11-24T00:38:23.167Z,6.54
2022-11-24T00:39:23.143Z,6.51
2022-11-24T00:40:23.151Z,6.50
2022-11-24T00:41:23.125Z,6.48
2022-11-24T00:42:23.112Z,6.47
2022-11-24T00:43:23.162Z,6.47
2022-11-24T00:44:23.097Z,6.46
2022-11-24T00:45:23.104Z,6.46
2022-11-24T00:46:23.210Z,6.47
2022-11-24T00:47:23.117Z,6.47
2022-11-24T00:48:23.043Z,6.46
2022-11-24T00:49:23.057Z,6.46
2022-11-24T00:50:23.021Z,6.46
2022-11-24T00:51:23.028Z,6.46
2022-11-24T00:52:23.007Z,6.44
2022-11-24T00:53:23.278Z,6.44
2022-11-24T00:54:23.248Z,6.44
2022-11-24T00:55:23.223Z,6.44
2022-11-24T00:56:22.970Z,6.44
2022-11-24T00:57:22.949Z,6.43
2022-11-24T00:58:22.932Z,6.41
2022-11-24T00:59:22.920Z,6.38
2022-11-24T01:00:22.940Z,6.38
2022-11-24T01:01:22.941Z,6.36
2022-11-24T01:02:22.938Z,6.33
2022-11-24T01:03:22.870Z,6.33
2022-11-24T01:04:22.885Z,6.30
2022-11-24T01:05:22.974Z,6.30
2022-11-24T01:06:22.841Z,6.28
2022-11-24T01:07:22.866Z,6.28
2022-11-24T01:08:22.822Z,6.26
2022-11-24T01:09:22.812Z,6.26
2022-11-24T01:10:22.802Z,6.25
2022-11-24T01:11:22.799Z,6.25
2022-11-24T01:12:22.785Z,6.22
2022-11-24T01:13:22.762Z,6.22
2022-11-24T01:14:22.760Z,6.22
2022-11-24T01:15:22.746Z,6.22
2022-11-24T01:16:22.841Z,6.21
2022-11-24T01:17:22.715Z,6.21
2022-11-24T01:18:22.704Z,6.19
2022-11-24T01:19:22.707Z,6.18
2022-11-24T01:20:22.686Z,6.18
2022-11-24T01:21:22.706Z,6.14
2022-11-24T01:22:22.696Z,6.16
2022-11-24T01:23:22.654Z,6.16
2022-11-24T01:24:22.654Z,6.18
2022-11-24T01:25:22.634Z,6.19
2022-11-24T01:26:22.620Z,6.19
2022-11-24T01:27:22.622Z,6.19
2022-11-24T01:28:22.602Z,6.21
2022-11-24T01:29:22.609Z,6.19
2022-11-24T01:30:22.567Z,6.21
2022-11-24T01:31:22.628Z,6.21
2022-11-24T01:32:22.587Z,6.19
2022-11-24T01:33:22.539Z,6.21
2022-11-24T01:34:22.529Z,6.16
2022-11-24T01:35:22.518Z,6.14
2022-11-24T01:36:22.518Z,6.13
2022-11-24T01:37:22.500Z,6.14
2022-11-24T01:38:22.480Z,6.10
2022-11-24T01:39:22.520Z,6.09
2022-11-24T01:40:23.427Z,6.09
2022-11-24T01:41:22.466Z,6.06
2022-11-24T01:42:22.456Z,6.06
2022-11-24T01:43:22.550Z,6.07
2022-11-24T01:44:22.411Z,6.06
2022-11-24T01:45:22.402Z,6.07
2022-11-24T01:46:22.413Z,6.04
2022-11-24T01:47:22.392Z,6.06
2022-11-24T01:48:27.174Z,6.07
2022-11-24T01:49:23.363Z,6.04
2022-11-24T01:50:22.348Z,6.06
2022-11-24T01:51:22.361Z,6.06
2022-11-24T01:52:22.345Z,6.04
2022-11-24T01:53:22.336Z,6.06
2022-11-24T01:54:22.296Z,6.04
2022-11-24T01:55:22.296Z,6.03
2022-11-24T01:56:22.301Z,6.04
2022-11-24T01:57:22.291Z,6.03
2022-11-24T01:58:22.260Z,6.04
2022-11-24T01:59:22.247Z,6.04
2022-11-24T02:00:22.305Z,6.04
2022-11-24T02:01:22.334Z,6.03
2022-11-24T02:02:22.319Z,6.03
2022-11-24T02:03:22.216Z,6.03
2022-11-24T02:04:22.199Z,6.01
2022-11-24T02:05:22.177Z,6.00
2022-11-24T02:06:22.172Z,5.98
2022-11-24T02:07:22.226Z,5.98
2022-11-24T02:08:22.147Z,5.96
2022-11-24T02:09:22.157Z,5.95
2022-11-24T02:10:22.132Z,5.93
2022-11-24T02:11:22.119Z,5.93
2022-11-24T02:12:22.106Z,5.95
2022-11-24T02:13:22.098Z,5.96
2022-11-24T02:14:22.095Z,5.95
2022-11-24T02:15:22.094Z,5.96
2022-11-24T02:16:22.119Z,5.88
2022-11-24T02:17:22.093Z,5.85
2022-11-24T02:18:22.053Z,5.85
2022-11-24T02:19:22.024Z,5.82
2022-11-24T02:20:22.021Z,5.85
2022-11-24T02:21:22.000Z,5.86
2022-11-24T02:22:21.991Z,5.86
2022-11-24T02:23:21.993Z,5.85
2022-11-24T02:24:21.982Z,5.88
2022-11-24T02:25:21.962Z,5.88
2022-11-24T02:26:21.942Z,5.88
2022-11-24T02:27:21.955Z,5.91
2022-11-24T02:28:22.046Z,5.91
2022-11-24T02:29:22.062Z,5.93
2022-11-24T02:30:21.894Z,5.93
2022-11-24T02:31:21.969Z,5.96
2022-11-24T02:32:21.878Z,5.98
2022-11-24T02:33:21.897Z,6.01
2022-11-24T02:34:21.872Z,6.01
2022-11-24T02:35:21.875Z,6.03
2022-11-24T02:36:21.824Z,6.04
2022-11-24T02:37:21.824Z,6.04
2022-11-24T02:38:21.812Z,6.06
2022-11-24T02:39:21.814Z,6.07
2022-11-24T02:40:21.789Z,6.07
2022-11-24T02:41:21.796Z,6.09
2022-11-24T02:42:21.811Z,6.10
2022-11-24T02:43:21.757Z,6.10
2022-11-24T02:44:21.746Z,6.11
2022-11-24T02:45:21.745Z,6.11
2022-11-24T02:46:21.764Z,6.13
2022-11-24T02:47:21.718Z,6.14
2022-11-24T02:48:21.698Z,6.13
2022-11-24T02:49:21.698Z,6.14
2022-11-24T02:50:21.686Z,6.13
2022-11-24T02:51:21.676Z,6.18
2022-11-24T02:52:21.670Z,6.18
2022-11-24T02:53:21.658Z,6.21
2022-11-24T02:54:21.648Z,6.21
2022-11-24T02:55:21.620Z,6.21
2022-11-24T02:56:21.608Z,6.21
2022-11-24T02:57:22.556Z,6.22
2022-11-24T02:58:21.579Z,6.26
2022-11-24T02:59:21.593Z,6.26
2022-11-24T03:00:21.565Z,6.26
2022-11-24T03:01:21.613Z,6.28
2022-11-24T03:02:21.563Z,6.29
2022-11-24T03:03:21.555Z,6.28
2022-11-24T03:04:21.644Z,6.29
2022-11-24T03:05:21.502Z,6.30
2022-11-24T03:06:21.516Z,6.33
2022-11-24T03:07:21.530Z,6.33
2022-11-24T03:08:21.487Z,6.32
2022-11-24T03:09:21.461Z,6.33
2022-11-24T03:10:21.462Z,6.30
2022-11-24T03:11:21.456Z,6.32
2022-11-24T03:12:22.394Z,6.30
2022-11-24T03:13:21.422Z,6.29
2022-11-24T03:14:22.075Z,6.28
2022-11-24T03:15:21.418Z,6.26
2022-11-24T03:16:21.428Z,6.28
2022-11-24T03:17:21.379Z,6.25
2022-11-24T03:18:21.373Z,6.22
2022-11-24T03:19:21.352Z,6.21
2022-11-24T03:20:22.285Z,6.18
2022-11-24T03:21:21.338Z,6.16
2022-11-24T03:22:21.314Z,6.16
2022-11-24T03:23:21.339Z,6.16
2022-11-24T03:24:21.325Z,6.13
2022-11-24T03:25:21.287Z,6.13
2022-11-24T03:26:21.269Z,6.14
2022-11-24T03:27:21.282Z,6.14
2022-11-24T03:28:21.259Z,6.10
2022-11-24T03:29:21.247Z,6.11
2022-11-24T03:30:21.249Z,6.10
2022-11-24T03:31:21.262Z,6.09
2022-11-24T03:32:21.220Z,6.06
2022-11-24T03:33:21.209Z,6.06
2022-11-24T03:34:21.267Z,6.06
2022-11-24T03:35:21.174Z,6.06
2022-11-24T03:36:21.167Z,6.04
2022-11-24T03:37:21.170Z,6.06
2022-11-24T03:38:21.161Z,6.06
2022-11-24T03:39:21.141Z,6.04
2022-11-24T03:40:21.123Z,6.04
2022-11-24T03:41:21.113Z,6.04
2022-11-24T03:42:21.101Z,6.03
2022-11-24T03:43:21.103Z,6.04
2022-11-24T03:44:21.160Z,6.06
2022-11-24T03:46:23.078Z,6.04
2022-11-24T03:47:21.066Z,6.04
2022-11-24T03:48:21.056Z,6.04
2022-11-24T03:49:21.201Z,6.04
2022-11-24T03:50:21.015Z,6.04
2022-11-24T03:51:21.060Z,6.04
2022-11-24T03:52:20.986Z,6.03
2022-11-24T03:53:20.990Z,6.03
2022-11-24T03:54:20.978Z,6.06
2022-11-24T03:55:20.957Z,6.03
2022-11-24T03:56:20.939Z,6.04
2022-11-24T03:57:20.936Z,6.06
2022-11-24T03:58:20.928Z,6.06
2022-11-24T03:59:20.917Z,6.06
2022-11-24T04:00:20.902Z,6.06
2022-11-24T04:01:20.913Z,6.06
2022-11-24T04:02:20.910Z,6.06
2022-11-24T04:03:20.876Z,6.06
2022-11-24T04:04:20.904Z,6.07
2022-11-24T04:05:20.850Z,6.06
2022-11-24T04:06:20.836Z,6.06
2022-11-24T04:07:20.883Z,6.04
2022-11-24T04:08:20.810Z,6.03
2022-11-24T04:09:20.799Z,6.04
2022-11-24T04:10:20.790Z,6.03
2022-11-24T04:11:20.796Z,6.01
2022-11-24T04:12:20.766Z,6.03
2022-11-24T04:13:20.776Z,6.01
2022-11-24T04:14:20.741Z,6.03
2022-11-24T04:15:21.687Z,6.03
2022-11-24T04:16:20.790Z,6.01
2022-11-24T04:17:20.738Z,6.01
2022-11-24T04:18:20.715Z,6.03
2022-11-24T04:19:20.693Z,6.00
2022-11-24T04:20:20.676Z,6.01
2022-11-24T04:21:20.663Z,6.03
2022-11-24T04:22:20.679Z,6.03
2022-11-24T04:23:21.593Z,6.03
2022-11-24T04:24:20.662Z,6.03
2022-11-24T04:25:20.615Z,6.01
2022-11-24T04:26:20.600Z,6.03
2022-11-24T04:27:20.647Z,6.00
2022-11-24T04:28:20.602Z,6.00
2022-11-24T04:29:20.645Z,6.01
2022-11-24T04:30:20.565Z,6.03
2022-11-24T04:31:20.604Z,6.03
2022-11-24T04:32:20.554Z,6.03
2022-11-24T04:33:20.546Z,6.03
2022-11-24T04:34:20.566Z,6.06
2022-11-24T04:35:20.507Z,6.07
2022-11-24T04:36:20.498Z,6.07
2022-11-24T04:37:20.512Z,6.09
2022-11-24T04:39:22.975Z,6.09
2022-11-24T04:39:26.461Z,6.09
2022-11-24T04:40:21.464Z,6.10
2022-11-24T04:41:20.432Z,6.11
2022-11-24T04:42:20.427Z,6.10
2022-11-24T04:43:20.450Z,6.11
2022-11-24T04:44:20.409Z,6.13
2022-11-24T04:45:20.393Z,6.13
2022-11-24T04:46:20.451Z,6.11
2022-11-24T04:47:20.383Z,6.14
2022-11-24T04:48:20.386Z,6.13
2022-11-24T04:49:20.345Z,6.13
2022-11-24T04:50:20.348Z,6.14
2022-11-24T04:51:20.350Z,6.14
2022-11-24T04:52:20.325Z,6.18
2022-11-24T04:53:20.359Z,6.16
2022-11-24T04:54:20.302Z,6.18
2022-11-24T04:55:20.291Z,6.18
2022-11-24T04:56:20.312Z,6.18
2022-11-24T04:57:20.265Z,6.21
2022-11-24T04:58:20.255Z,6.21
2022-11-24T04:59:20.278Z,6.21
2022-11-24T05:00:21.195Z,6.25
2022-11-24T05:01:20.292Z,6.22
2022-11-24T05:02:20.207Z,6.25
2022-11-24T05:03:20.188Z,6.21
2022-11-24T05:04:20.273Z,6.25
2022-11-24T05:05:20.186Z,6.25
2022-11-24T05:06:20.165Z,6.21
2022-11-24T05:07:20.212Z,6.22
2022-11-24T05:08:20.178Z,6.25
2022-11-24T05:09:20.149Z,6.26
2022-11-24T05:10:20.159Z,6.26
2022-11-24T05:11:20.112Z,6.28
2022-11-24T05:12:20.106Z,6.28
2022-11-24T05:13:20.089Z,6.29
2022-11-24T05:14:20.108Z,6.30
2022-11-24T05:15:20.075Z,6.30
2022-11-24T05:16:20.962Z,6.32
2022-11-24T05:17:20.046Z,6.32
2022-11-24T05:18:20.079Z,6.33
2022-11-24T05:19:21.475Z,6.32
2022-11-24T05:20:20.038Z,6.35
2022-11-24T05:21:19.993Z,6.35
2022-11-24T05:22:20.014Z,6.36
2022-11-24T05:23:20.860Z,6.36
2022-11-24T05:24:20.017Z,6.36
2022-11-24T05:25:20.899Z,6.38
2022-11-24T05:26:20.868Z,6.35
2022-11-24T05:27:20.018Z,6.35
2022-11-24T05:28:20.080Z,6.35
2022-11-24T05:29:19.901Z,6.33
2022-11-24T05:30:19.920Z,6.33
2022-11-24T05:31:19.974Z,6.32
2022-11-24T05:32:19.911Z,6.32
2022-11-24T05:33:19.863Z,6.35
2022-11-24T05:34:19.871Z,6.32
2022-11-24T05:35:19.839Z,6.32
2022-11-24T05:36:19.924Z,6.30
2022-11-24T05:37:19.825Z,6.28
2022-11-24T05:38:19.827Z,6.29
2022-11-24T05:39:19.808Z,6.29
2022-11-24T05:40:19.795Z,6.26
2022-11-24T05:41:19.775Z,6.28
2022-11-24T05:42:19.807Z,6.26
2022-11-24T05:43:19.745Z,6.22
2022-11-24T05:44:19.766Z,6.26
2022-11-24T05:45:21.176Z,6.26
2022-11-24T05:46:19.821Z,6.25
2022-11-24T05:47:19.734Z,6.22
2022-11-24T05:48:19.716Z,6.22
2022-11-24T05:49:19.693Z,6.21
2022-11-24T05:50:19.702Z,6.21
2022-11-24T05:51:19.673Z,6.19
2022-11-24T05:52:19.697Z,6.21
2022-11-24T05:53:19.636Z,6.19
2022-11-24T05:54:19.677Z,6.21
2022-11-24T05:55:19.717Z,6.19
2022-11-24T05:56:19.631Z,6.19
2022-11-24T05:57:19.604Z,6.19
2022-11-24T05:58:19.606Z,6.19
2022-11-24T05:59:19.571Z,6.21
2022-11-24T06:00:19.588Z,6.19
2022-11-24T06:01:19.571Z,6.19
2022-11-24T06:02:19.657Z,6.19
2022-11-24T06:03:19.599Z,6.19
2022-11-24T06:04:19.534Z,6.19
2022-11-24T06:05:19.559Z,6.18
2022-11-24T06:06:19.545Z,6.14
2022-11-24T06:07:19.524Z,6.11
2022-11-24T06:08:19.499Z,6.11
2022-11-24T06:09:19.450Z,6.10
2022-11-24T06:10:19.477Z,6.11
2022-11-24T06:11:20.419Z,6.07
2022-11-24T06:12:19.452Z,6.06
2022-11-24T06:13:19.516Z,6.04
2022-11-24T06:14:19.429Z,6.03
2022-11-24T06:15:19.398Z,6.00
2022-11-24T06:16:19.471Z,6.00
2022-11-24T06:17:19.361Z,6.00
2022-11-24T06:18:19.402Z,6.00
2022-11-24T06:19:19.345Z,6.00
2022-11-24T06:20:19.376Z,5.98
2022-11-24T06:21:19.322Z,5.96
2022-11-24T06:22:19.355Z,5.96
2022-11-24T06:23:19.303Z,5.92
2022-11-24T06:24:19.317Z,5.92
2022-11-24T06:25:20.256Z,5.89
2022-11-24T06:26:19.407Z,5.91
2022-11-24T06:27:19.283Z,5.92
2022-11-24T06:28:19.296Z,5.93
2022-11-24T06:29:19.228Z,5.93
2022-11-24T06:30:19.247Z,5.91
2022-11-24T06:31:19.264Z,5.89
2022-11-24T06:32:19.234Z,5.88
2022-11-24T06:33:19.197Z,5.86
2022-11-24T06:34:19.194Z,5.86
2022-11-24T06:35:19.201Z,5.83
2022-11-24T06:36:19.210Z,5.85
2022-11-24T06:37:19.190Z,5.86
2022-11-24T06:38:24.276Z,5.86
2022-11-24T06:39:19.130Z,5.88
2022-11-24T06:40:19.130Z,5.92
2022-11-24T06:41:19.109Z,5.92
2022-11-24T06:42:19.136Z,5.96
2022-11-24T06:43:19.081Z,5.98
2022-11-24T06:44:19.084Z,6.03
2022-11-24T06:45:19.062Z,6.04
2022-11-24T06:46:19.137Z,6.06
2022-11-24T06:47:19.030Z,6.09
2022-11-24T06:48:19.052Z,6.13
2022-11-24T06:49:19.030Z,6.13
2022-11-24T06:50:19.019Z,6.14
2022-11-24T06:51:19.004Z,6.16
2022-11-24T06:52:19.011Z,6.21
2022-11-24T06:53:18.963Z,6.21
2022-11-24T06:54:18.968Z,6.28
2022-11-24T06:55:19.902Z,6.28
2022-11-24T06:56:18.958Z,6.28
2022-11-24T06:57:18.934Z,6.32
2022-11-24T06:58:18.949Z,6.33
2022-11-24T06:59:18.908Z,6.35
2022-11-24T07:00:18.912Z,6.36
2022-11-24T07:01:19.075Z,6.40
2022-11-24T07:02:18.925Z,6.40
2022-11-24T07:03:18.883Z,6.43
2022-11-24T07:04:18.864Z,6.44
2022-11-24T07:05:18.844Z,6.46
2022-11-24T07:06:18.848Z,6.47
2022-11-24T07:07:18.859Z,6.47
2022-11-24T07:08:18.835Z,6.47
2022-11-24T07:09:18.784Z,6.51
2022-11-24T07:10:18.797Z,6.50
2022-11-24T07:11:18.764Z,6.51
2022-11-24T07:12:18.777Z,6.50
2022-11-24T07:13:18.788Z,6.51
2022-11-24T07:14:18.768Z,6.51
2022-11-24T07:15:18.715Z,6.50
2022-11-24T07:16:18.817Z,6.50
2022-11-24T07:17:18.700Z,6.50
2022-11-24T07:18:18.710Z,6.53
2022-11-24T07:19:24.410Z,6.51
2022-11-24T07:20:19.679Z,6.53
2022-11-24T07:21:18.651Z,6.54
2022-11-24T07:22:18.662Z,6.56
2022-11-24T07:23:18.630Z,6.56
2022-11-24T07:24:18.648Z,6.56
2022-11-24T07:25:19.580Z,6.59
2022-11-24T07:26:18.621Z,6.59
2022-11-24T07:27:18.591Z,6.59
2022-11-24T07:28:18.601Z,6.61
2022-11-24T07:29:18.636Z,6.61
2022-11-24T07:30:18.573Z,6.62
2022-11-24T07:31:18.561Z,6.65
2022-11-24T07:32:18.598Z,6.65
2022-11-24T07:33:18.529Z,6.66
2022-11-24T07:34:18.541Z,6.66
2022-11-24T07:35:18.500Z,6.69
2022-11-24T07:36:18.523Z,6.69
2022-11-24T07:37:18.492Z,6.72
2022-11-24T07:38:18.493Z,6.72
2022-11-24T07:39:18.447Z,6.72
2022-11-24T07:40:18.507Z,6.73
2022-11-24T07:41:18.452Z,6.73
2022-11-24T07:42:18.446Z,6.76
2022-11-24T07:43:20.292Z,6.72
2022-11-24T07:44:18.408Z,6.72
2022-11-24T07:45:18.380Z,6.71
2022-11-24T07:46:18.430Z,6.73
2022-11-24T07:47:18.358Z,6.72
2022-11-24T07:48:18.368Z,6.73
2022-11-24T07:49:18.375Z,6.72
2022-11-24T07:50:18.359Z,6.76
2022-11-24T07:51:18.330Z,6.77
2022-11-24T07:52:18.330Z,6.77
2022-11-24T07:53:18.299Z,6.79
2022-11-24T07:54:18.316Z,6.80
2022-11-24T07:55:18.291Z,6.81
2022-11-24T07:56:18.303Z,6.83
2022-11-24T07:57:18.265Z,6.84
2022-11-24T07:58:18.277Z,6.86
2022-11-24T07:59:18.254Z,6.87
2022-11-24T08:00:18.242Z,6.89
2022-11-24T08:01:18.358Z,6.91
2022-11-24T08:02:18.239Z,6.95
2022-11-24T08:03:18.226Z,6.98
2022-11-24T08:04:18.194Z,7.01
2022-11-24T08:05:18.154Z,7.02
2022-11-24T08:06:30.307Z,7.04
2022-11-24T08:07:19.205Z,7.04
2022-11-24T08:08:18.161Z,7.05
2022-11-24T08:09:18.124Z,7.07
2022-11-24T08:10:18.125Z,7.08
2022-11-24T08:11:19.072Z,7.09
2022-11-24T08:12:18.115Z,7.12
2022-11-24T08:13:18.067Z,7.12
2022-11-24T08:14:18.128Z,7.12
2022-11-24T08:15:18.074Z,7.15
2022-11-24T08:16:18.136Z,7.13
2022-11-24T08:17:18.016Z,7.15
2022-11-24T08:18:18.033Z,7.15
2022-11-24T08:19:18.005Z,7.15
2022-11-24T08:20:18.033Z,7.16
2022-11-24T08:21:18.018Z,7.16
2022-11-24T08:22:18.004Z,7.16
2022-11-24T08:23:17.956Z,7.17
2022-11-24T08:24:17.976Z,7.17
2022-11-24T08:25:17.926Z,7.19
2022-11-24T08:26:17.981Z,7.20
2022-11-24T08:27:17.927Z,7.22
2022-11-24T08:28:17.926Z,7.22
2022-11-24T08:29:17.888Z,7.22
2022-11-24T08:30:17.911Z,7.23
2022-11-24T08:31:17.890Z,7.23
2022-11-24T08:32:22.167Z,7.24
2022-11-24T08:33:17.861Z,7.24
2022-11-24T08:34:17.887Z,7.27
2022-11-24T08:35:24.859Z,7.29
2022-11-24T08:36:17.847Z,7.29
2022-11-24T08:37:17.821Z,7.32
2022-11-24T08:38:17.815Z,7.32
2022-11-24T08:39:17.786Z,7.32
2022-11-24T08:40:17.784Z,7.34
2022-11-24T08:41:17.780Z,7.37
2022-11-24T08:42:17.792Z,7.38
2022-11-24T08:43:17.764Z,7.40
2022-11-24T08:44:17.715Z,7.41
2022-11-24T08:45:22.456Z,7.41
2022-11-24T08:46:18.815Z,7.42
2022-11-24T08:47:17.730Z,7.44
2022-11-24T08:48:17.672Z,7.47
2022-11-24T08:49:17.689Z,7.49
2022-11-24T08:50:17.650Z,7.50
2022-11-24T08:51:17.673Z,7.50
2022-11-24T08:52:17.656Z,7.50
2022-11-24T08:53:17.648Z,7.49
2022-11-24T08:54:17.632Z,7.50
2022-11-24T08:55:17.633Z,7.50
2022-11-24T08:56:17.583Z,7.52
2022-11-24T08:57:21.756Z,7.49
2022-11-24T08:58:17.561Z,7.50
2022-11-24T08:59:17.694Z,7.50
2022-11-24T09:00:17.647Z,7.50
2022-11-24T09:01:17.709Z,7.49
2022-11-24T09:02:17.522Z,7.50
2022-11-24T09:03:17.551Z,7.50
2022-11-24T09:04:17.531Z,7.50
2022-11-24T09:05:43.639Z,7.50
2022-11-24T09:06:18.512Z,7.50
2022-11-24T09:07:17.530Z,7.52
2022-11-24T09:08:17.461Z,7.52
2022-11-24T09:09:17.455Z,7.53
2022-11-24T09:10:17.421Z,7.53
2022-11-24T09:11:17.449Z,7.55
2022-11-24T09:12:17.402Z,7.55
2022-11-24T09:13:17.431Z,7.58
2022-11-24T09:14:17.392Z,7.59
2022-11-24T09:15:18.351Z,7.62
2022-11-24T09:16:18.380Z,7.62
2022-11-24T09:17:17.374Z,7.60
2022-11-24T09:18:17.354Z,7.63
2022-11-24T09:19:17.363Z,7.66
2022-11-24T09:20:17.338Z,7.66
2022-11-24T09:21:18.016Z,7.71
2022-11-24T09:22:18.263Z,7.71
2022-11-24T09:23:17.302Z,7.71
2022-11-24T09:24:17.265Z,7.69
2022-11-24T09:25:17.318Z,7.71
2022-11-24T09:26:17.238Z,7.71
2022-11-24T09:27:17.262Z,7.71
2022-11-24T09:28:17.227Z,7.69
2022-11-24T09:29:18.180Z,7.67
2022-11-24T09:30:18.161Z,7.69
2022-11-24T09:31:17.300Z,7.71
2022-11-24T09:32:17.266Z,7.71
2022-11-24T09:33:17.188Z,7.71
2022-11-24T09:34:17.151Z,7.72
2022-11-24T09:35:17.169Z,7.75
2022-11-24T09:36:17.148Z,7.74
2022-11-24T09:37:17.159Z,7.75
2022-11-24T09:38:17.131Z,7.75
2022-11-24T09:39:17.143Z,7.77
2022-11-24T09:40:17.093Z,7.77
2022-11-24T09:41:17.115Z,7.78
2022-11-24T09:42:17.063Z,7.81
2022-11-24T09:43:17.100Z,7.84
2022-11-24T09:44:17.052Z,7.85
2022-11-24T09:45:26.272Z,7.87
2022-11-24T09:46:18.051Z,7.92
2022-11-24T09:47:17.988Z,7.94
2022-11-24T09:48:17.020Z,7.94
2022-11-24T09:49:17.014Z,7.97
2022-11-24T09:50:16.981Z,7.99
2022-11-24T09:51:17.009Z,8.00
2022-11-24T09:52:16.950Z,8.02
2022-11-24T09:53:16.968Z,8.04
2022-11-24T09:54:16.939Z,8.07
2022-11-24T09:55:16.953Z,8.08
2022-11-24T09:56:16.896Z,8.08
2022-11-24T09:57:16.923Z,8.10
2022-11-24T09:58:16.896Z,8.11
2022-11-24T09:59:16.895Z,8.15
2022-11-24T10:00:16.873Z,8.15
2022-11-24T10:01:16.939Z,8.18
2022-11-24T10:02:16.852Z,8.20
2022-11-24T10:03:16.848Z,8.25
2022-11-24T10:04:16.867Z,8.22
2022-11-24T10:05:16.841Z,8.28
2022-11-24T10:06:16.811Z,8.28
2022-11-24T10:07:16.841Z,8.30
2022-11-24T10:08:17.753Z,8.30
2022-11-24T10:09:16.802Z,8.33
2022-11-24T10:10:22.871Z,8.36
2022-11-24T10:11:17.766Z,8.40
2022-11-24T10:12:16.744Z,8.45
2022-11-24T10:13:16.741Z,8.51
2022-11-24T10:14:16.708Z,8.51
2022-11-24T10:15:16.720Z,8.54
2022-11-24T10:16:16.724Z,8.54
2022-11-24T10:17:16.703Z,8.55
2022-11-24T10:18:17.467Z,8.57
2022-11-24T10:19:16.700Z,8.60
2022-11-24T10:20:16.652Z,8.63
2022-11-24T10:21:16.673Z,8.69
2022-11-24T10:22:16.661Z,8.72
2022-11-24T10:23:16.641Z,8.75
2022-11-24T10:24:16.613Z,8.78
2022-11-24T10:25:16.599Z,8.81
2022-11-24T10:26:16.578Z,8.81
2022-11-24T10:27:16.583Z,8.83
2022-11-24T10:28:16.537Z,8.86
2022-11-24T10:29:16.582Z,8.84
2022-11-24T10:30:16.530Z,8.84
2022-11-24T10:31:16.549Z,8.87
2022-11-24T10:32:16.515Z,8.88
2022-11-24T10:33:17.498Z,8.90
2022-11-24T10:34:17.449Z,8.91
2022-11-24T10:35:16.494Z,8.93
2022-11-24T10:36:17.412Z,8.96
2022-11-24T10:37:17.411Z,9.01
2022-11-24T10:38:17.395Z,9.01
2022-11-24T10:39:16.451Z,9.01
2022-11-24T10:40:33.459Z,9.05
2022-11-24T10:41:17.435Z,9.09
2022-11-24T10:42:16.400Z,9.12
2022-11-24T10:43:16.417Z,9.15
2022-11-24T10:44:16.373Z,9.18
2022-11-24T10:45:16.377Z,9.23
2022-11-24T10:46:16.434Z,9.25
2022-11-24T10:47:16.349Z,9.27
2022-11-24T10:48:16.318Z,9.24
2022-11-24T10:49:16.353Z,9.24
2022-11-24T10:50:16.327Z,9.23
2022-11-24T10:51:16.317Z,9.24
2022-11-24T10:52:16.260Z,9.30
2022-11-24T10:53:16.290Z,9.31
2022-11-24T10:54:16.289Z,9.38
2022-11-24T10:55:16.258Z,9.43
2022-11-24T10:56:16.227Z,9.46
2022-11-24T10:57:16.243Z,9.50
2022-11-24T10:58:16.252Z,9.56
2022-11-24T10:59:16.229Z,9.58
2022-11-24T11:00:16.249Z,9.61
2022-11-24T11:01:16.220Z,9.66
2022-11-24T11:02:16.224Z,9.67
2022-11-24T11:03:16.181Z,9.66
2022-11-24T11:04:16.138Z,9.68
2022-11-24T11:05:16.150Z,9.70
2022-11-24T11:06:16.128Z,9.73
2022-11-24T11:07:16.192Z,9.76
2022-11-24T11:08:16.093Z,9.82
2022-11-24T11:09:16.119Z,9.85
2022-11-24T11:10:16.168Z,9.89
2022-11-24T11:11:16.097Z,9.91
2022-11-24T11:12:45.417Z,9.99
2022-11-24T11:13:17.068Z,9.99
2022-11-24T11:14:16.033Z,10.06
2022-11-24T11:15:16.069Z,10.09
2022-11-24T11:16:16.058Z,10.07
2022-11-24T11:17:16.020Z,10.10
2022-11-24T11:18:16.011Z,10.10
2022-11-24T11:19:47.434Z,10.14
2022-11-24T11:20:16.965Z,10.15
2022-11-24T11:21:16.024Z,10.15
2022-11-24T11:22:15.951Z,10.12
2022-11-24T11:23:15.943Z,10.12
2022-11-24T11:24:15.918Z,10.14
2022-11-24T11:25:15.938Z,10.14
2022-11-24T11:26:15.916Z,10.12
2022-11-24T11:27:15.910Z,10.09
2022-11-24T11:28:18.204Z,10.07
2022-11-24T11:31:19.114Z,10.04
2022-11-24T11:34:25.096Z,10.03
2022-11-24T11:35:16.825Z,10.04
2022-11-24T11:36:16.866Z,10.04
2022-11-24T11:37:16.735Z,10.04
2022-11-24T11:38:15.752Z,10.07
2022-11-24T11:39:15.795Z,10.04
2022-11-24T11:40:16.976Z,10.04
2022-11-24T11:41:15.744Z,10.04
2022-11-24T11:42:37.852Z,10.04
2022-11-24T11:43:16.729Z,10.06
2022-11-24T11:44:15.681Z,10.06
2022-11-24T11:45:15.795Z,10.04
2022-11-24T11:46:15.826Z,10.06
2022-11-24T11:47:15.738Z,10.03
2022-11-24T11:48:15.648Z,10.03
2022-11-24T11:49:15.662Z,10.03
2022-11-24T11:50:15.734Z,10.01
2022-11-24T11:51:23.449Z,10.00
2022-11-24T11:52:16.634Z,10.00
2022-11-24T11:53:15.609Z,9.99
2022-11-24T11:54:15.576Z,10.00
2022-11-24T11:55:15.587Z,9.99
2022-11-24T11:56:15.582Z,9.99
2022-11-24T11:57:15.577Z,10.01
2022-11-24T11:58:15.550Z,10.00
2022-11-24T11:59:15.542Z,10.00
2022-11-24T12:00:15.504Z,9.99
2022-11-24T12:01:15.529Z,9.97
2022-11-24T12:02:15.545Z,9.99
2022-11-24T12:03:15.674Z,9.97
2022-11-24T12:04:15.517Z,9.96
2022-11-24T12:05:15.475Z,9.96
2022-11-24T12:06:15.442Z,9.94
2022-11-24T12:07:15.545Z,9.93
2022-11-24T12:08:20.693Z,9.91
2022-11-24T12:09:20.984Z,9.91
2022-11-24T12:10:16.408Z,9.88
2022-11-24T12:11:15.416Z,9.89
2022-11-24T12:12:15.368Z,9.86
2022-11-24T12:13:15.406Z,9.86
2022-11-24T12:14:15.385Z,9.86
2022-11-24T12:15:15.372Z,9.86
2022-11-24T12:16:15.363Z,9.88
2022-11-24T12:17:15.348Z,9.86
2022-11-24T12:18:40.304Z,9.88
2022-11-24T12:19:16.319Z,9.89
2022-11-24T12:20:15.299Z,9.89
2022-11-24T12:21:15.306Z,9.93
2022-11-24T12:22:15.257Z,9.94
2022-11-24T12:23:15.288Z,9.94
2022-11-24T12:24:15.247Z,9.97
2022-11-24T12:25:15.250Z,9.97
2022-11-24T12:26:15.246Z,9.96
2022-11-24T12:27:19.475Z,9.99
2022-11-24T12:28:16.191Z,9.97
2022-11-24T12:29:15.242Z,10.00
2022-11-24T12:30:15.196Z,9.99
2022-11-24T12:31:15.238Z,9.97
2022-11-24T12:32:15.145Z,10.01
2022-11-24T12:33:15.183Z,9.99
2022-11-24T12:34:15.122Z,9.97
2022-11-24T12:35:15.153Z,9.96
2022-11-24T12:36:15.114Z,9.94
2022-11-24T12:37:15.122Z,9.91
2022-11-24T12:38:15.103Z,9.91
2022-11-24T12:39:15.107Z,9.85
2022-11-24T12:40:15.064Z,9.88
2022-11-24T12:42:16.028Z,9.88
2022-11-24T12:43:15.047Z,9.86
2022-11-24T12:44:15.012Z,9.88
2022-11-24T12:45:15.037Z,9.86
2022-11-24T12:46:17.455Z,9.85
2022-11-24T12:47:15.093Z,9.85
2022-11-24T12:48:15.009Z,9.88
2022-11-24T12:49:15.003Z,9.88
2022-11-24T12:50:14.945Z,9.88
2022-11-24T12:51:14.958Z,9.94
2022-11-24T12:52:14.943Z,9.94
2022-11-24T12:53:14.938Z,9.96
2022-11-24T12:54:14.905Z,9.97
2022-11-24T12:55:14.908Z,9.97
2022-11-24T12:56:14.879Z,10.00
2022-11-24T12:57:14.903Z,10.01
2022-11-24T12:58:14.876Z,10.01
2022-11-24T12:59:14.853Z,10.04
2022-11-24T13:00:14.884Z,10.04
2022-11-24T13:01:16.967Z,10.01
2022-11-24T13:02:14.979Z,10.01
2022-11-24T13:03:14.879Z,10.01
2022-11-24T13:04:14.817Z,10.01
2022-11-24T13:05:14.802Z,10.00
2022-11-24T13:06:14.799Z,10.01
2022-11-24T13:07:14.815Z,10.03
2022-11-24T13:08:14.774Z,9.97
2022-11-24T13:09:14.748Z,9.99
2022-11-24T13:10:14.741Z,9.99
2022-11-24T13:11:14.722Z,10.00
2022-11-24T13:12:14.741Z,9.99
2022-11-24T13:13:14.682Z,9.99
2022-11-24T13:14:14.697Z,9.96
2022-11-24T13:15:36.127Z,9.94
2022-11-24T13:17:31.198Z,9.91
2022-11-24T13:18:15.701Z,9.93
2022-11-24T13:19:14.624Z,9.91
2022-11-24T13:20:14.635Z,9.93
2022-11-24T13:21:14.592Z,9.93
2022-11-24T13:22:14.606Z,9.94
2022-11-24T13:23:15.525Z,9.89